Flight Track Log - Related Links

Times and Time Zones

All times are in EDT time to prevent confusion due to time zone crossing. See the SWA542 flight status page for this flight to view local times or setup timezone preferences in your user account.

Time Position Orientation Groundspeed Altitude Reporting Facility
EDT Latitude Longitude Course Direction KTS MPH feet Rate Location/Type
Tue 11:07:50 PM 41.8333 -87.7500 90° East 222 255 3,300  Level Chicago TRACON
Tue 11:09:58 PM 41.8522 -87.5411 83° East 276 318 5,400 1,968 Climbing Chicago Center
Tue 11:10:59 PM 41.8417 -87.4328 97° East 298 343 9,500 3,787 Climbing Chicago Center
Tue 11:12:00 PM 41.8178 -87.3194 106° East 313 360 13,100 2,951 Climbing Chicago Center
Tue 11:13:00 PM 41.7500 -86.9582 90° East  Level FlightAware Approximate
Tue 11:13:01 PM 41.7919 -87.1986 106° East 334 384 15,500  Level Chicago Center
Tue 11:14:03 PM 41.7608 -87.0347 104° East 380 437 19,600 3,707 Climbing Chicago Center
Tue 11:15:04 PM 41.7633 -86.8808 89° East 413 475 23,100 3,590 Climbing Chicago Center
Tue 11:16:05 PM 41.7653 -86.7286 89° East 412 474 26,900 2,902 Climbing Chicago Center
Tue 11:17:06 PM 41.7667 -86.5844 89° East 414 476 29,000 1,024 Climbing Chicago Center
Tue 11:18:08 PM 41.7669 -86.4264 90° East 423 487 29,000  Level Chicago Center
Tue 11:19:09 PM 41.7669 -86.2636 90° East 436 502 29,000  Level Chicago Center
Tue 11:20:10 PM 41.7283 -86.1125 109° East 436 502 29,000  Level Chicago Center
Tue 11:21:11 PM 41.6808 -85.9661 113° Southeast 432 497 29,000  Level Chicago Center
Tue 11:22:13 PM 41.6028 -85.8106 124° Southeast 429 494 29,000  Level Chicago Center
Tue 11:23:14 PM 41.5231 -85.7003 134° Southeast 421 484 29,000  Level Chicago Center
Tue 11:24:15 PM 41.4431 -85.5883 134° Southeast 422 486 29,000  Level Chicago Center
Tue 11:25:16 PM 41.3644 -85.4781 134° Southeast 419 482 29,000  Level Chicago Center
Tue 11:26:17 PM 41.2856 -85.3686 134° Southeast 416 479 29,000  Level Chicago Center
Tue 11:27:19 PM 41.2056 -85.2603 134° Southeast 414 476 29,000  Level Chicago Center
Tue 11:28:20 PM 41.1106 -85.1314 134° Southeast 411 473 29,000  Level Chicago Center
Tue 11:29:21 PM 41.0317 -85.0236 134° Southeast 411 473 29,000 -689 Level Chicago Center
Tue 11:30:22 PM 40.9547 -84.9178 134° Southeast 404 465 27,600 -1,721 Descending Chicago Center
Tue 11:31:23 PM 40.8786 -84.8142 134° Southeast 397 457 25,500 -1,268 Descending Chicago Center
Tue 11:32:25 PM 40.8256 -84.6889 119° Southeast 408 470 25,000 -488 Descending Chicago Center
Tue 11:33:26 PM 40.7842 -84.5572 113° Southeast 396 456 24,500 -492 Descending Chicago Center
Tue 11:34:27 PM 40.7408 -84.4247 113° Southeast 397 457 24,000 -661 Descending Chicago Center
Tue 11:35:15 PM 40.7061 -84.3006 110° East 398 458 23,300 -936 Descending Indianapolis Center
Tue 11:36:16 PM 40.6628 -84.1644 113° Southeast 399 459 22,300 -984 Descending Indianapolis Center
Tue 11:37:17 PM 40.6192 -84.0264 113° Southeast 402 463 21,300 -1,082 Descending Indianapolis Center
Tue 11:38:18 PM 40.5764 -83.8917 113° Southeast 397 457 20,100 -1,328 Descending Indianapolis Center
Tue 11:39:19 PM 40.5344 -83.7631 113° Southeast 380 437 18,600 -1,574 Descending Indianapolis Center
Tue 11:40:20 PM 40.4781 -83.6447 122° Southeast 376 433 16,900 -1,714 Descending Indianapolis Center
Tue 11:40:43 PM 40.4564 -83.6008 123° Southeast 370 426 16,200 -1,967 Descending Indianapolis Center
Tue 11:41:21 PM 40.4225 -83.5314 123° Southeast 369 425 14,900 -2,182 Descending Indianapolis Center
Tue 11:42:22 PM 40.3722 -83.4164 120° Southeast 361 415 12,600 -1,967 Descending Indianapolis Center
Tue 11:43:23 PM 40.3233 -83.3025 119° Southeast 357 411 10,900 -1,279 Descending Indianapolis Center
Tue 11:44:24 PM 40.2775 -83.1894 118° Southeast 349 402 10,000 -789 Descending Indianapolis Center
Tue 11:44:39 PM 40.2619 -83.1558 121° Southeast 338 389 9,900 -885 Descending Indianapolis Center
Tue 11:45:25 PM 40.2347 -83.0811 115° Southeast 333 383 9,100 -1,121 Descending Indianapolis Center
Tue 11:46:26 PM 40.1944 -82.9778 117° Southeast 319 367 7,900 -1,279 Descending Indianapolis Center
Tue 11:47:27 PM 40.1528 -82.8778 119° Southeast 310 357 6,500 -1,230 Descending Indianapolis Center
Tue 11:48:28 PM 40.1003 -82.8111 136° Southeast 264 304 5,400 -984 Descending Indianapolis Center
Tue 11:49:29 PM 40.0469 -82.7606 144° Southeast 242 278 4,500 -984 Descending Indianapolis Center
Tue 11:50:30 PM 40.0031 -82.7347 156° South 198 228 3,400 -1,091 Descending Indianapolis Center
Tue 11:51:30 PM 39.9875 -82.7633 235° Southwest 136 157 2,300 -793 Descending Indianapolis Center
Tue 11:52:31 PM 39.9897 -82.8031 274° West 115 132 1,800 -541 Descending Indianapolis Center
Tue 11:53:32 PM 39.9914 -82.8447 273° West 112 129 1,200 -344 Descending Indianapolis Center
Tue 11:54:33 PM 39.9933 -82.8867 273° West 114 131 1,100 -98 Descending Indianapolis Center

Login

Don't have an account? Register now (free) for customized features, flight alerts, and more!